Time;durP1;ratioP1;P1;durP2;ratioP2;P2;SDS_P1;SDS_P2;PMS_P1;PMS_P2;Temp;Humidity;BMP_temperature;BMP_pressure;BME280_temperature;BME280_humidity;BME280_pressure;Samples;Min_cycle;Max_cycle;Signal;HPM_P1;HPM_P2
2022/08/29 00:00:08;;;;;;;7.28;6.50;;;;;;;21.04;94.79;99388.50;1741024;81;20995;-69
2022/08/29 00:02:35;;;;;;;9.48;6.78;;;;;;;21.04;94.79;99388.50;1746488;81;21892;-69
2022/08/29 00:05:03;;;;;;;6.87;6.10;;;;;;;21.09;94.71;99385.39;1730083;81;21517;-69
2022/08/29 00:07:29;;;;;;;7.00;5.33;;;;;;;21.09;94.38;99376.04;1730560;81;21516;-69
2022/08/29 00:09:56;;;;;;;8.70;6.05;;;;;;;21.09;94.39;99378.71;1745470;81;21508;-68
2022/08/29 00:12:22;;;;;;;8.98;6.45;;;;;;;21.06;94.69;99379.84;1740588;81;21647;-69
2022/08/29 00:14:50;;;;;;;7.67;6.87;;;;;;;21.04;94.90;99369.79;1734622;80;21789;-68
2022/08/29 00:17:16;;;;;;;8.05;6.65;;;;;;;21.04;94.79;99364.44;1738782;80;21500;-69
2022/08/29 00:19:43;;;;;;;10.28;7.35;;;;;;;21.06;94.68;99361.14;1738425;81;21546;-68
2022/08/29 00:22:10;;;;;;;8.78;7.12;;;;;;;21.06;94.63;99368.28;1735663;81;21543;-68
2022/08/29 00:24:36;;;;;;;11.28;6.90;;;;;;;21.05;94.95;99371.45;1734242;81;21006;-66
2022/08/29 00:27:03;;;;;;;14.10;7.60;;;;;;;21.08;94.76;99376.54;1746127;81;22007;-67
2022/08/29 00:29:30;;;;;;;13.65;7.08;;;;;;;21.12;94.69;99377.11;1741333;81;20978;-68
2022/08/29 00:31:56;;;;;;;7.50;6.70;;;;;;;21.13;94.60;99372.93;1743067;80;21518;-67
2022/08/29 00:34:23;;;;;;;8.68;6.65;;;;;;;21.23;94.97;99358.73;1723817;81;21561;-68
2022/08/29 00:36:50;;;;;;;9.80;6.20;;;;;;;21.23;94.97;99358.73;1733080;81;21531;-68
2022/08/29 00:39:16;;;;;;;9.90;7.53;;;;;;;21.29;95.17;99365.70;1731129;81;22249;-68
2022/08/29 00:41:44;;;;;;;8.75;6.53;;;;;;;21.34;94.84;99361.25;1743806;80;21372;-70
2022/08/29 00:44:10;;;;;;;9.03;6.35;;;;;;;21.44;94.13;99364.81;1732545;81;21519;-70
2022/08/29 00:46:48;;;;;;;7.58;6.00;;;;;;;21.46;94.10;99363.34;1743105;80;21436;-70
2022/08/29 00:49:37;;;;;;;7.90;6.35;;;;;;;21.55;93.81;99357.14;1747522;80;21586;-70
2022/08/29 00:52:38;;;;;;;7.25;5.75;;;;;;;21.59;93.67;99357.20;1740088;80;22154;-70
2022/08/29 00:55:12;;;;;;;7.10;4.90;;;;;;;21.61;93.36;99355.22;1733963;81;21448;-70
2022/08/29 00:57:43;;;;;;;5.78;4.53;;;;;;;21.68;92.69;99359.48;1738587;81;21503;-70
2022/08/29 01:00:10;;;;;;;7.80;4.78;;;;;;;21.68;93.05;99359.02;1741029;81;21516;-71
2022/08/29 01:02:40;;;;;;;6.75;4.70;;;;;;;21.78;92.54;99355.81;1734023;81;21411;-70
2022/08/29 01:05:09;;;;;;;9.58;4.85;;;;;;;21.86;92.45;99361.78;1734182;80;21413;-69
2022/08/29 01:07:37;;;;;;;7.78;4.35;;;;;;;21.87;92.31;99362.61;1735499;80;21520;-69
2022/08/29 01:10:06;;;;;;;5.30;4.50;;;;;;;21.92;91.44;99358.52;1732574;81;21476;-69
2022/08/29 01:12:33;;;;;;;7.58;4.17;;;;;;;21.99;90.51;99355.28;1742452;81;21543;-69
2022/08/29 01:15:06;;;;;;;5.83;4.53;;;;;;;22.00;90.53;99360.96;1737518;81;21548;-69
2022/08/29 01:17:36;;;;;;;6.25;4.30;;;;;;;22.00;90.10;99351.13;1732086;80;21819;-69
2022/08/29 01:20:12;;;;;;;6.17;4.70;;;;;;;22.02;89.75;99349.14;1733230;81;21504;-69
2022/08/29 01:23:16;;;;;;;6.25;4.00;;;;;;;22.11;88.35;99344.25;1741814;80;21571;-69
2022/08/29 01:25:48;;;;;;;6.58;4.10;;;;;;;22.11;88.35;99344.25;1730013;80;21492;-69
2022/08/29 01:28:28;;;;;;;5.80;3.98;;;;;;;22.13;87.81;99341.40;1721125;80;21536;-68
2022/08/29 01:31:08;;;;;;;5.83;3.60;;;;;;;22.11;88.04;99340.70;1735770;80;21891;-69
2022/08/29 01:33:48;;;;;;;4.75;4.15;;;;;;;22.13;87.68;99332.03;1749217;81;21585;-69
2022/08/29 01:36:19;;;;;;;5.15;3.87;;;;;;;22.20;87.11;99330.45;1737833;81;21483;-68
2022/08/29 01:38:46;;;;;;;8.38;4.33;;;;;;;22.19;86.86;99326.11;1732257;81;20985;-69
2022/08/29 01:41:13;;;;;;;10.13;4.35;;;;;;;22.15;87.06;99324.22;1725527;80;21626;-68
2022/08/29 01:43:43;;;;;;;4.42;3.80;;;;;;;22.14;87.03;99326.53;1691031;84;22232;-69
2022/08/29 01:46:13;;;;;;;10.10;4.28;;;;;;;22.18;87.14;99332.44;1725803;81;21510;-70
2022/08/29 01:48:42;;;;;;;9.28;3.62;;;;;;;22.15;87.10;99330.05;1729073;81;21431;-71
2022/08/29 01:51:09;;;;;;;7.12;4.30;;;;;;;22.05;87.34;99319.38;1721911;81;21469;-70
2022/08/29 01:53:37;;;;;;;4.20;3.80;;;;;;;22.14;87.23;99330.55;1725887;81;21479;-72
2022/08/29 01:56:17;;;;;;;5.42;4.58;;;;;;;22.05;87.38;99334.11;1727048;81;21534;-71
2022/08/29 01:58:47;;;;;;;7.70;4.20;;;;;;;22.06;87.46;99332.30;1734260;80;21455;-71
2022/08/29 02:01:16;;;;;;;7.55;4.42;;;;;;;22.09;87.11;99334.16;1728926;81;21600;-72
2022/08/29 02:03:42;;;;;;;6.60;3.85;;;;;;;22.03;87.33;99334.75;1724673;81;21001;-72
2022/08/29 02:06:09;;;;;;;7.03;3.92;;;;;;;22.04;87.10;99330.23;1727607;81;21428;-72
2022/08/29 02:08:37;;;;;;;9.03;3.90;;;;;;;22.01;87.16;99329.20;1696939;82;21581;-72
2022/08/29 02:11:08;;;;;;;5.75;4.25;;;;;;;21.97;86.88;99324.13;1724556;81;21630;-72
2022/08/29 02:13:33;;;;;;;5.47;4.05;;;;;;;21.97;86.88;99324.13;1690491;82;21538;-72
2022/08/29 02:16:00;;;;;;;6.28;3.95;;;;;;;21.94;86.68;99328.94;1726297;82;21559;-71
2022/08/29 02:18:27;;;;;;;5.10;3.60;;;;;;;22.00;86.16;99323.02;1730842;81;21570;-71
2022/08/29 02:20:53;;;;;;;5.00;3.83;;;;;;;21.99;85.91;99329.34;1690591;82;21570;-71
2022/08/29 02:23:20;;;;;;;8.33;3.57;;;;;;;21.97;85.47;99324.64;1696332;82;21503;-71
2022/08/29 02:25:48;;;;;;;7.17;3.20;;;;;;;21.97;85.09;99321.96;1690804;82;21540;-71
2022/08/29 02:28:16;;;;;;;6.37;3.58;;;;;;;21.95;84.59;99327.45;1694456;82;21561;-72
2022/08/29 02:30:49;;;;;;;6.10;3.47;;;;;;;21.93;84.38;99321.41;1687564;82;21648;-71
2022/08/29 02:33:15;;;;;;;6.83;3.83;;;;;;;21.90;84.29;99327.55;1697172;82;21958;-71
2022/08/29 02:35:43;;;;;;;6.03;4.00;;;;;;;21.91;84.21;99327.91;1720158;81;21442;-69
2022/08/29 02:38:09;;;;;;;4.80;3.58;;;;;;;21.84;85.29;99335.66;1733777;81;21444;-69
2022/08/29 02:40:36;;;;;;;7.72;4.30;;;;;;;21.83;85.78;99331.31;1739113;81;21608;-69
2022/08/29 02:43:03;;;;;;;4.30;3.90;;;;;;;21.78;86.54;99337.09;1721814;81;21571;-69
2022/08/29 02:45:30;;;;;;;6.80;3.70;;;;;;;21.79;87.11;99337.92;1740700;80;21574;-69
2022/08/29 02:47:58;;;;;;;7.25;4.22;;;;;;;21.72;87.69;99337.67;1738854;80;21385;-70
2022/08/29 02:50:24;;;;;;;4.33;3.85;;;;;;;21.65;88.34;99333.88;1739006;81;21561;-69
2022/08/29 02:52:51;;;;;;;8.03;3.87;;;;;;;21.58;88.63;99343.47;1742427;81;21523;-70
2022/08/29 02:55:19;;;;;;;6.50;4.30;;;;;;;21.59;88.16;99347.84;1739261;81;21869;-69
2022/08/29 02:57:46;;;;;;;10.13;4.62;;;;;;;21.58;87.49;99350.98;1738881;81;21744;-68
2022/08/29 03:00:19;;;;;;;5.97;4.53;;;;;;;21.39;87.63;99343.80;1747441;81;21586;-68
2022/08/29 03:02:46;;;;;;;9.05;4.40;;;;;;;21.39;87.63;99343.80;1743564;81;21451;-69
2022/08/29 03:05:16;;;;;;;5.33;4.33;;;;;;;21.41;88.22;99345.00;1740323;80;21578;-69
2022/08/29 03:07:42;;;;;;;8.55;4.33;;;;;;;21.34;88.35;99344.74;1741009;81;21527;-68
2022/08/29 03:10:10;;;;;;;7.27;4.60;;;;;;;21.32;88.19;99345.85;1738567;80;21551;-70
2022/08/29 03:12:36;;;;;;;7.90;4.47;;;;;;;21.27;88.26;99347.63;1733998;81;21664;-69
2022/08/29 03:15:05;;;;;;;7.12;4.37;;;;;;;21.17;88.79;99355.66;1744536;81;21544;-69
2022/08/29 03:17:31;;;;;;;6.97;3.90;;;;;;;21.13;88.87;99353.38;1742008;80;20983;-69
2022/08/29 03:19:57;;;;;;;10.88;4.70;;;;;;;21.09;88.77;99359.50;1733572;81;21693;-68
2022/08/29 03:22:26;;;;;;;10.20;4.95;;;;;;;21.06;88.62;99357.59;1741046;80;22178;-68
2022/08/29 03:24:52;;;;;;;6.53;4.27;;;;;;;21.05;88.33;99361.27;1733522;81;21479;-70
2022/08/29 03:27:19;;;;;;;9.37;4.57;;;;;;;21.02;88.31;99366.41;1740527;81;21509;-67
2022/08/29 03:29:46;;;;;;;10.90;4.17;;;;;;;21.00;88.24;99363.88;1737473;81;20963;-68
2022/08/29 03:32:13;;;;;;;5.55;3.90;;;;;;;21.00;87.93;99364.34;1737206;80;21606;-69
2022/08/29 03:34:39;;;;;;;5.83;3.95;;;;;;;20.96;87.65;99359.80;1741576;80;21546;-74
2022/08/29 03:37:06;;;;;;;5.55;4.70;;;;;;;21.00;86.94;99358.53;1741995;81;21575;-69
2022/08/29 03:39:35;;;;;;;6.30;4.27;;;;;;;21.05;86.42;99356.76;1738953;80;21432;-68
2022/08/29 03:42:04;;;;;;;9.75;5.00;;;;;;;21.09;85.86;99351.98;1739786;80;21491;-68
2022/08/29 03:44:33;;;;;;;5.95;4.30;;;;;;;21.10;85.60;99351.84;1744982;80;21505;-69
2022/08/29 03:47:00;;;;;;;8.33;4.35;;;;;;;21.14;85.14;99353.25;1751940;80;21879;-68
2022/08/29 03:49:27;;;;;;;8.98;4.85;;;;;;;21.19;84.70;99354.16;1753796;80;21435;-70
2022/08/29 03:51:53;;;;;;;8.18;4.47;;;;;;;21.20;84.47;99351.84;1752004;80;21424;-69
2022/08/29 03:54:21;;;;;;;8.23;4.33;;;;;;;21.23;84.33;99356.05;1739172;80;21620;-69
2022/08/29 03:56:48;;;;;;;8.30;4.35;;;;;;;21.28;84.01;99357.32;1730641;80;20954;-69
2022/08/29 03:59:15;;;;;;;6.03;4.47;;;;;;;21.33;83.61;99358.25;1749509;80;21788;-69
2022/08/29 04:01:42;;;;;;;5.63;4.50;;;;;;;21.38;83.33;99363.52;1744911;80;21719;-69
2022/08/29 04:05:05;;;;;;;7.60;3.83;;;;;;;21.42;83.25;99357.88;1734973;80;21106;-70
2022/08/29 04:06:36;;;;;;;8.23;4.42;;;;;;;21.46;83.28;99358.83;1749853;80;21590;-68
2022/08/29 04:09:03;;;;;;;9.65;3.90;;;;;;;21.48;83.57;99368.05;1748351;80;21574;-68
2022/08/29 04:11:31;;;;;;;5.75;3.98;;;;;;;21.54;83.74;99364.30;1747447;80;22012;-69
2022/08/29 04:13:57;;;;;;;7.58;4.20;;;;;;;21.61;83.83;99367.77;1759313;80;20983;-69
2022/08/29 04:16:26;;;;;;;7.25;4.20;;;;;;;21.64;84.23;99366.95;1753470;80;21455;-68
2022/08/29 04:18:52;;;;;;;6.28;4.00;;;;;;;21.66;84.59;99363.67;1748757;80;21483;-70
2022/08/29 04:21:19;;;;;;;6.70;4.03;;;;;;;21.67;85.04;99364.00;1743803;80;21429;-69
2022/08/29 04:23:45;;;;;;;7.08;4.20;;;;;;;21.67;85.71;99368.02;1753812;80;22128;-68
2022/08/29 04:26:16;;;;;;;5.05;4.10;;;;;;;21.69;86.02;99370.05;1755784;80;21530;-69
2022/08/29 04:28:43;;;;;;;6.42;3.95;;;;;;;21.73;86.67;99369.27;1739848;80;21557;-68
2022/08/29 04:31:18;;;;;;;8.50;3.80;;;;;;;21.77;87.13;99368.00;1744829;80;21536;-70
2022/08/29 04:33:42;;;;;;;8.83;4.15;;;;;;;21.83;87.06;99368.78;1752324;80;21395;-67
2022/08/29 04:36:09;;;;;;;4.25;3.85;;;;;;;21.88;86.94;99373.69;1738918;80;21836;-72
2022/08/29 04:38:36;;;;;;;6.40;3.90;;;;;;;21.91;87.13;99368.05;1744271;80;21558;-73
2022/08/29 04:41:09;;;;;;;6.45;3.87;;;;;;;21.96;87.20;99369.30;1743151;80;21524;-73
2022/08/29 04:43:35;;;;;;;5.12;4.20;;;;;;;22.07;86.78;99366.09;1742567;80;21436;-74
2022/08/29 04:46:02;;;;;;;5.62;4.10;;;;;;;22.16;86.11;99366.55;1732691;80;21536;-73
2022/08/29 04:48:29;;;;;;;6.03;3.80;;;;;;;22.20;86.10;99366.60;1737545;81;21591;-71
2022/08/29 04:50:56;;;;;;;6.70;4.47;;;;;;;22.24;85.94;99360.45;1741633;81;21681;-70
2022/08/29 04:53:24;;;;;;;6.12;4.17;;;;;;;22.33;85.28;99367.14;1737541;81;21570;-70
2022/08/29 04:56:05;;;;;;;6.00;3.87;;;;;;;22.37;84.97;99372.20;1733339;81;21538;-71
2022/08/29 04:58:36;;;;;;;5.87;4.22;;;;;;;22.42;84.84;99369.44;1747133;81;21511;-66
2022/08/29 05:01:03;;;;;;;8.40;4.15;;;;;;;22.50;84.17;99371.37;1746929;80;21789;-66
2022/08/29 05:03:31;;;;;;;9.03;4.42;;;;;;;22.55;84.19;99369.92;1730112;81;21567;-64
2022/08/29 05:06:07;;;;;;;5.47;4.70;;;;;;;22.70;83.10;99370.78;1738038;81;21026;-63
2022/08/29 05:08:36;;;;;;;6.47;4.60;;;;;;;22.82;82.60;99368.72;1734750;81;21533;-63
2022/08/29 05:11:05;;;;;;;6.35;4.22;;;;;;;22.82;82.60;99368.72;1737773;81;21635;-63
2022/08/29 05:13:32;;;;;;;7.35;4.55;;;;;;;22.96;81.35;99368.18;1736780;81;21828;-63
2022/08/29 05:16:00;;;;;;;6.35;4.97;;;;;;;23.06;80.88;99373.02;1731315;81;21551;-65
2022/08/29 05:18:27;;;;;;;;;;;;;;;23.17;79.49;99372.44;1720163;81;21567;-64
2022/08/29 05:20:53;;;;;;;8.65;4.92;;;;;;;23.26;76.98;99368.36;1737933;81;20433;-65
2022/08/29 05:23:20;;;;;;;12.30;5.45;;;;;;;23.30;78.44;99372.42;1735720;81;21701;-64
2022/08/29 05:25:57;;;;;;;17.95;6.05;;;;;;;23.38;77.49;99364.94;1741569;81;21448;-64
2022/08/29 05:28:25;;;;;;;9.98;5.53;;;;;;;23.52;76.86;99368.39;1726688;80;21543;-64
2022/08/29 05:30:52;;;;;;;12.40;6.30;;;;;;;23.66;76.40;99363.48;1736834;81;21566;-64
2022/08/29 05:33:19;;;;;;;11.10;6.20;;;;;;;23.77;75.39;99366.39;1736289;81;21527;-64
2022/08/29 05:35:45;;;;;;;9.18;6.47;;;;;;;23.92;74.00;99366.19;1734607;81;21428;-64
2022/08/29 05:38:13;;;;;;;6.58;5.97;;;;;;;23.92;74.00;99366.19;1735482;81;21683;-65
2022/08/29 05:40:40;;;;;;;;;;;;;;;24.01;73.90;99369.77;1743352;80;21553;-65
2022/08/29 05:43:06;;;;;;;6.83;6.10;;;;;;;24.16;71.55;99363.31;1736710;80;20454;-64
2022/08/29 05:45:33;;;;;;;13.10;6.62;;;;;;;24.24;72.43;99368.71;1758588;80;22070;-65
2022/08/29 05:48:06;;;;;;;9.85;6.47;;;;;;;24.30;71.54;99362.72;1751392;80;21632;-64
2022/08/29 05:50:40;;;;;;;10.20;7.65;;;;;;;24.41;70.81;99365.12;1755985;80;21810;-64
2022/08/29 05:53:11;;;;;;;12.25;8.55;;;;;;;24.48;69.90;99364.79;1751895;80;21431;-65
2022/08/29 05:55:41;;;;;;;14.35;7.55;;;;;;;24.55;69.16;99358.83;1747754;80;21550;-66
2022/08/29 05:58:08;;;;;;;11.05;7.22;;;;;;;24.67;68.59;99357.50;1754033;80;21424;-67
2022/08/29 06:00:41;;;;;;;11.73;7.05;;;;;;;24.76;68.06;99357.03;1756157;80;21509;-62
2022/08/29 06:03:09;;;;;;;8.73;7.83;;;;;;;24.83;67.76;99354.87;1745906;80;21859;-64
2022/08/29 06:05:36;;;;;;;11.68;7.28;;;;;;;24.95;66.93;99350.01;1745793;80;21032;-63
2022/08/29 06:08:03;;;;;;;13.38;8.28;;;;;;;25.02;65.90;99358.27;1749944;80;21556;-64
2022/08/29 06:10:32;;;;;;;10.95;7.58;;;;;;;25.07;64.95;99359.94;1748992;80;21460;-64
2022/08/29 06:12:58;;;;;;;14.98;8.00;;;;;;;25.15;64.71;99357.79;1750378;80;21521;-63
2022/08/29 06:15:28;;;;;;;11.38;7.95;;;;;;;25.22;64.45;99360.98;1756684;80;21824;-63
2022/08/29 06:17:55;;;;;;;9.63;7.97;;;;;;;25.33;64.41;99361.69;1742745;80;22617;-63
2022/08/29 06:20:22;;;;;;;8.70;7.80;;;;;;;25.41;64.34;99365.71;1749859;80;21507;-65
2022/08/29 06:22:50;;;;;;;11.18;8.68;;;;;;;25.53;63.12;99362.20;1745014;80;20994;-66
2022/08/29 06:25:17;;;;;;;8.70;7.80;;;;;;;25.64;62.02;99363.20;1748632;80;21499;-65
2022/08/29 06:27:44;;;;;;;9.80;8.38;;;;;;;25.69;61.44;99367.55;1748452;80;21895;-65
2022/08/29 06:30:11;;;;;;;12.70;8.48;;;;;;;25.82;60.38;99371.07;1757207;80;21475;-65
2022/08/29 06:32:38;;;;;;;11.35;8.68;;;;;;;25.87;59.67;99374.10;1745959;80;20934;-64
2022/08/29 06:35:05;;;;;;;;;;;;;;;25.99;59.08;99371.91;1746481;80;20999;-67
2022/08/29 06:37:32;;;;;;;8.70;7.47;;;;;;;26.17;57.81;99369.02;1748760;80;20420;-66
2022/08/29 06:39:58;;;;;;;17.80;8.65;;;;;;;26.24;58.65;99378.09;1747970;80;21881;-66
2022/08/29 06:42:25;;;;;;;12.68;8.80;;;;;;;26.33;57.80;99376.20;1736271;80;21319;-66
2022/08/29 06:44:51;;;;;;;14.47;9.20;;;;;;;26.37;57.90;99374.83;1737688;80;21480;-67
2022/08/29 06:47:18;;;;;;;14.43;8.65;;;;;;;26.46;58.02;99381.88;1744324;80;21511;-71
2022/08/29 06:49:45;;;;;;;12.65;8.38;;;;;;;26.60;57.17;99385.73;1740933;80;21652;-67
2022/08/29 06:52:12;;;;;;;11.73;8.38;;;;;;;26.74;56.49;99386.84;1744145;80;27104;-66
2022/08/29 06:54:39;;;;;;;10.18;8.98;;;;;;;26.78;56.01;99388.16;1736430;81;21601;-66
2022/08/29 06:57:05;;;;;;;16.77;8.55;;;;;;;26.83;55.88;99386.30;1742594;81;21529;-66
2022/08/29 06:59:33;;;;;;;10.40;8.23;;;;;;;26.93;55.99;99389.60;1741038;80;21507;-72
2022/08/29 07:01:59;;;;;;;12.10;7.67;;;;;;;27.05;54.50;99383.28;1739199;80;21515;-66
2022/08/29 07:04:26;;;;;;;13.08;8.68;;;;;;;27.10;53.87;99384.43;1741598;80;21872;-69
2022/08/29 07:06:53;;;;;;;13.10;7.67;;;;;;;27.22;53.18;99384.88;1737875;80;20955;-67
2022/08/29 07:09:19;;;;;;;12.25;8.23;;;;;;;27.30;52.79;99379.95;1744572;80;21624;-66
2022/08/29 07:11:48;;;;;;;9.90;8.00;;;;;;;27.44;52.35;99385.90;1737310;80;21391;-67
2022/08/29 07:14:14;;;;;;;13.10;8.63;;;;;;;27.53;51.81;99386.16;1737223;80;21037;-68
2022/08/29 07:16:41;;;;;;;9.50;7.97;;;;;;;27.63;51.07;99383.73;1742541;79;21828;-71
2022/08/29 07:19:09;;;;;;;11.12;8.45;;;;;;;27.73;50.61;99382.98;1742424;80;21594;-68
2022/08/29 07:21:36;;;;;;;19.12;8.90;;;;;;;27.78;50.55;99380.55;1737426;80;21024;-66
2022/08/29 07:24:02;;;;;;;10.63;8.50;;;;;;;27.92;50.05;99381.13;1732298;80;21616;-66
2022/08/29 07:26:34;;;;;;;9.80;7.78;;;;;;;27.98;49.93;99374.66;1729240;80;20990;-66
2022/08/29 07:29:06;;;;;;;11.70;8.43;;;;;;;28.10;49.67;99375.86;1735659;80;21167;-66
2022/08/29 07:31:33;;;;;;;11.33;8.70;;;;;;;28.22;48.84;99383.85;1741615;80;21666;-66
2022/08/29 07:34:00;;;;;;;10.75;8.60;;;;;;;28.40;48.68;99378.57;1744007;79;21581;-67
2022/08/29 07:36:27;;;;;;;9.03;8.23;;;;;;;28.55;48.35;99374.02;1743531;80;22003;-68
2022/08/29 07:38:53;;;;;;;10.80;7.83;;;;;;;28.67;47.21;99373.86;1740078;79;21563;-66
2022/08/29 07:41:20;;;;;;;10.65;7.28;;;;;;;28.80;46.66;99369.63;1743708;80;22252;-69
2022/08/29 07:43:46;;;;;;;16.85;8.53;;;;;;;28.89;46.01;99372.02;1741513;79;21590;-68
2022/08/29 07:46:15;;;;;;;9.60;7.85;;;;;;;28.99;45.52;99378.50;1735527;79;21577;-65
2022/08/29 07:48:42;;;;;;;9.75;8.10;;;;;;;29.08;45.23;99365.66;1741613;80;21586;-67
2022/08/29 07:51:11;;;;;;;12.23;7.72;;;;;;;29.20;44.90;99372.30;1743003;80;21538;-69
2022/08/29 07:53:38;;;;;;;8.23;7.40;;;;;;;29.34;44.69;99371.89;1746279;80;21949;-67
2022/08/29 07:56:12;;;;;;;9.30;7.40;;;;;;;29.47;43.89;99376.07;1742274;80;21953;-66
2022/08/29 07:58:39;;;;;;;9.25;7.37;;;;;;;29.58;43.37;99376.07;1742195;80;21519;-66
2022/08/29 08:01:06;;;;;;;10.13;7.53;;;;;;;29.57;43.13;99360.01;1741974;80;21504;-66
2022/08/29 08:03:33;;;;;;;12.47;7.33;;;;;;;29.80;42.67;99364.72;1742390;80;21688;-68
2022/08/29 08:05:59;;;;;;;8.20;7.42;;;;;;;29.87;42.32;99371.00;1743622;80;21778;-68
2022/08/29 08:08:27;;;;;;;12.55;6.97;;;;;;;30.07;42.06;99369.78;1743083;80;21671;-67
2022/08/29 08:10:54;;;;;;;10.97;7.20;;;;;;;30.18;41.40;99372.47;1745706;80;21602;-67
2022/08/29 08:13:21;;;;;;;10.18;7.10;;;;;;;30.25;41.01;99375.20;1741393;80;21652;-67
2022/08/29 08:15:47;;;;;;;9.23;7.47;;;;;;;30.32;40.64;99372.05;1742712;80;21049;-67
2022/08/29 08:18:15;;;;;;;10.63;6.72;;;;;;;30.34;40.23;99367.78;1730402;80;21486;-68
2022/08/29 08:20:47;;;;;;;10.78;7.60;;;;;;;30.41;39.84;99372.72;1732234;80;21544;-68
2022/08/29 08:23:10;;;;;;;9.48;7.03;;;;;;;30.46;39.23;99368.37;1728422;80;21520;-66
2022/08/29 08:25:36;;;;;;;9.17;6.80;;;;;;;30.56;39.07;99376.13;1738351;80;21556;-65
2022/08/29 08:28:03;;;;;;;11.20;7.08;;;;;;;30.64;38.96;99377.30;1743608;80;21547;-67
2022/08/29 08:30:29;;;;;;;10.97;7.43;;;;;;;30.70;38.30;99375.65;1738236;80;21843;-65
2022/08/29 08:32:56;;;;;;;10.70;7.87;;;;;;;30.82;38.51;99374.56;1736602;81;20970;-65
2022/08/29 08:35:24;;;;;;;10.80;7.62;;;;;;;30.92;38.43;99374.20;1738139;80;21400;-65
2022/08/29 08:37:51;;;;;;;12.10;7.67;;;;;;;31.00;38.24;99372.12;1734778;80;21575;-67
2022/08/29 08:40:26;;;;;;;8.35;7.53;;;;;;;31.08;37.76;99369.77;1738864;80;21543;-63
2022/08/29 08:43:01;;;;;;;9.10;7.03;;;;;;;31.16;37.60;99361.41;1745218;80;21857;-65
2022/08/29 08:45:38;;;;;;;8.15;6.55;;;;;;;31.34;37.44;99368.11;1744107;80;21613;-64
2022/08/29 08:48:24;;;;;;;8.28;7.25;;;;;;;31.46;37.27;99361.53;1737241;80;21577;-64
2022/08/29 08:50:56;;;;;;;12.07;7.17;;;;;;;31.54;37.22;99365.45;1705135;82;21617;-65
2022/08/29 08:55:14;;;;;;;11.18;7.33;;;;;;;31.20;37.83;99365.91;1783756;77;23004;-64
2022/08/29 08:57:58;;;;;;;8.13;7.33;;;;;;;31.78;35.82;99380.29;1725279;81;21568;-65
2022/08/29 09:00:24;;;;;;;8.98;6.85;;;;;;;31.76;35.37;99379.63;1681320;82;21804;-66
2022/08/29 09:03:09;;;;;;;8.95;6.67;;;;;;;31.73;35.14;99378.19;1733982;80;21434;-66
2022/08/29 09:06:06;;;;;;;7.35;6.75;;;;;;;31.50;35.75;99334.32;1731234;81;21576;-66
2022/08/29 09:08:53;;;;;;;9.08;6.95;;;;;;;31.81;35.44;99373.88;1731385;81;21534;-66
2022/08/29 09:11:35;;;;;;;10.15;6.95;;;;;;;31.81;34.82;99368.44;1730505;81;21537;-66
2022/08/29 09:14:07;;;;;;;10.23;6.75;;;;;;;31.97;34.57;99370.44;1736263;81;21827;-65
2022/08/29 09:16:39;;;;;;;7.53;6.47;;;;;;;32.02;34.63;99367.92;1729221;81;21577;-66
2022/08/29 09:19:09;;;;;;;9.78;6.90;;;;;;;32.14;34.13;99377.66;1733929;80;21523;-64
2022/08/29 09:21:48;;;;;;;8.10;7.20;;;;;;;32.16;34.32;99372.30;1727925;81;21007;-63
2022/08/29 09:24:29;;;;;;;12.40;7.20;;;;;;;32.19;33.97;99368.31;1733522;80;21647;-63
2022/08/29 09:26:55;;;;;;;8.53;7.22;;;;;;;32.19;33.78;99371.89;1729655;80;21922;-70
2022/08/29 09:29:26;;;;;;;7.20;6.60;;;;;;;32.22;33.57;99361.63;1729320;81;20985;-66
2022/08/29 09:32:12;;;;;;;7.33;6.62;;;;;;;32.34;33.33;99367.55;1725377;80;21463;-66
2022/08/29 09:34:43;;;;;;;9.33;6.17;;;;;;;32.36;32.83;99365.45;1739788;81;21724;-66
2022/08/29 09:37:31;;;;;;;7.97;6.90;;;;;;;32.40;33.07;99361.25;1716929;82;21555;-66
2022/08/29 09:40:09;;;;;;;7.37;6.70;;;;;;;32.51;32.50;99361.11;1708178;82;21899;-67
2022/08/29 09:42:39;;;;;;;8.00;6.55;;;;;;;32.57;32.58;99353.47;1718312;82;21550;-69
2022/08/29 09:45:19;;;;;;;8.53;6.12;;;;;;;32.61;32.60;99353.87;1700587;83;21526;-66
2022/08/29 09:47:46;;;;;;;7.17;6.47;;;;;;;32.73;32.33;99359.47;1724121;80;21570;-64
2022/08/29 09:50:25;;;;;;;7.45;6.10;;;;;;;32.81;32.09;99361.92;1717408;81;20953;-65
2022/08/29 09:53:00;;;;;;;7.60;5.90;;;;;;;32.85;31.91;99358.24;1719981;82;21856;-65
2022/08/29 09:55:34;;;;;;;7.47;5.90;;;;;;;33.01;31.54;99354.19;1703774;82;21484;-67
2022/08/29 09:58:06;;;;;;;9.58;5.87;;;;;;;33.06;31.11;99352.48;1703962;83;21086;-67
2022/08/29 10:00:42;;;;;;;9.03;6.72;;;;;;;33.08;31.49;99350.36;1696261;83;21474;-65
2022/08/29 10:03:19;;;;;;;7.22;5.85;;;;;;;33.17;31.35;99344.14;1701790;83;21546;-66
2022/08/29 10:05:49;;;;;;;6.90;5.90;;;;;;;33.09;31.16;99346.57;1709296;83;21494;-65
2022/08/29 10:08:38;;;;;;;8.05;5.95;;;;;;;33.15;31.24;99350.34;1699067;83;21022;-66
2022/08/29 10:11:19;;;;;;;6.97;5.75;;;;;;;33.23;31.15;99348.73;1701107;82;21619;-66
2022/08/29 10:13:55;;;;;;;6.83;6.12;;;;;;;33.36;30.79;99347.27;1708233;83;21577;-65
2022/08/29 10:16:52;;;;;;;9.05;5.87;;;;;;;33.48;30.85;99347.91;1696118;83;21571;-65
2022/08/29 10:19:21;;;;;;;;;;;;;;;33.63;30.69;99341.59;1703079;83;21840;-65
2022/08/29 10:22:02;;;;;;;6.40;5.20;;;;;;;33.74;29.27;99340.88;1701308;83;20429;-66
2022/08/29 10:24:37;;;;;;;8.60;5.47;;;;;;;33.65;30.37;99341.40;1696976;83;21522;-65
2022/08/29 10:27:21;;;;;;;6.53;5.92;;;;;;;33.67;30.24;99346.92;1708261;82;21514;-67
2022/08/29 10:29:59;;;;;;;8.40;5.80;;;;;;;33.55;29.95;99344.06;1711752;83;21542;-65
2022/08/29 10:32:50;;;;;;;11.10;5.80;;;;;;;33.51;30.03;99338.77;1700717;82;22208;-65
2022/08/29 10:35:39;;;;;;;8.68;5.47;;;;;;;33.59;30.42;99329.97;1698842;83;21526;-65
2022/08/29 10:38:26;;;;;;;7.22;5.08;;;;;;;33.66;30.33;99338.45;1699805;83;21062;-67
2022/08/29 10:41:12;;;;;;;;;;;;;;;33.75;30.08;99332.99;1676509;83;21659;-67
2022/08/29 10:44:05;;;;;;;8.80;5.70;;;;;;;33.82;29.43;99322.58;1702102;82;20462;-65
2022/08/29 10:46:49;;;;;;;5.97;5.35;;;;;;;33.92;30.02;99324.23;1712438;83;22362;-66
2022/08/29 10:49:43;;;;;;;9.35;5.87;;;;;;;34.00;29.42;99338.96;1699714;83;21025;-65
2022/08/29 10:52:38;;;;;;;8.98;5.40;;;;;;;34.03;29.21;99330.84;1694151;83;21526;-65
2022/08/29 10:55:31;;;;;;;9.18;5.50;;;;;;;34.11;29.03;99321.84;1705145;83;21539;-66
2022/08/29 10:58:21;;;;;;;8.65;5.10;;;;;;;34.12;28.91;99333.58;1694670;82;21098;-68
2022/08/29 11:00:56;;;;;;;7.40;5.42;;;;;;;34.12;28.97;99324.86;1695250;82;21868;-66
2022/08/29 11:03:45;;;;;;;6.65;5.25;;;;;;;34.22;28.88;99328.98;1699083;82;21496;-67
2022/08/29 11:06:23;;;;;;;7.00;4.95;;;;;;;34.29;28.75;99328.38;1692555;82;21043;-66
2022/08/29 11:09:07;;;;;;;6.50;5.20;;;;;;;34.38;28.41;99339.28;1687082;83;21468;-66
2022/08/29 11:11:35;;;;;;;7.28;5.60;;;;;;;34.33;28.53;99336.41;1686848;82;21453;-66
2022/08/29 11:14:05;;;;;;;9.40;5.28;;;;;;;34.28;28.67;99331.64;1691200;82;21985;-66
2022/08/29 11:16:42;;;;;;;5.85;5.25;;;;;;;34.29;28.50;99339.29;1734149;80;21413;-67
2022/08/29 11:19:26;;;;;;;7.83;5.10;;;;;;;34.29;28.49;99328.38;1735197;80;21446;-66
2022/08/29 11:22:03;;;;;;;9.78;5.67;;;;;;;34.37;28.25;99323.96;1735585;80;21452;-67
2022/08/29 11:24:33;;;;;;;7.45;4.87;;;;;;;34.30;28.18;99321.84;1736227;80;21572;-66
2022/08/29 11:27:25;;;;;;;8.15;5.40;;;;;;;34.36;28.43;99323.68;1734753;80;21736;-66
2022/08/29 11:30:09;;;;;;;7.45;5.10;;;;;;;34.54;28.34;99326.08;1729895;80;21458;-65
2022/08/29 11:33:07;;;;;;;8.03;5.03;;;;;;;34.69;28.24;99323.25;1736754;80;21589;-66
2022/08/29 11:35:52;;;;;;;8.03;5.35;;;;;;;34.72;28.16;99330.17;1739174;80;21548;-66
2022/08/29 11:38:51;;;;;;;8.83;4.72;;;;;;;34.77;27.97;99324.83;1736374;80;21590;-66
2022/08/29 11:41:28;;;;;;;6.92;4.90;;;;;;;34.87;27.99;99329.21;1600746;87;22019;-66
2022/08/29 11:43:59;;;;;;;9.50;4.97;;;;;;;34.97;27.68;99325.09;1577209;89;21600;-66
2022/08/29 11:46:35;;;;;;;6.55;4.92;;;;;;;34.95;27.87;99314.93;1597252;86;21539;-68
2022/08/29 11:49:29;;;;;;;6.28;4.83;;;;;;;34.96;27.81;99326.99;1598818;87;21633;-67
2022/08/29 11:52:13;;;;;;;10.25;5.37;;;;;;;34.98;27.97;99334.93;1596827;87;21546;-69